createdAt,value
2019-04-20T00:01:50.914Z,52.30
2019-04-20T00:03:55.587Z,52.00
2019-04-20T00:05:59.406Z,51.90
2019-04-20T00:08:08.992Z,52.20
2019-04-20T00:10:14.941Z,52.40
2019-04-20T00:12:22.098Z,52.50
2019-04-20T00:14:24.590Z,52.70
2019-04-20T00:16:25.223Z,52.70
2019-04-20T00:18:36.945Z,52.70
2019-04-20T00:20:37.184Z,52.50
2019-04-20T00:22:51.690Z,52.40
2019-04-20T00:25:00.456Z,53.40
2019-04-20T00:27:22.370Z,52.80
2019-04-20T00:29:25.179Z,52.60
2019-04-20T00:31:27.324Z,52.70
2019-04-20T00:33:36.359Z,53.10
2019-04-20T00:35:23.057Z,52.60
2019-04-20T00:37:27.753Z,52.70
2019-04-20T00:39:32.016Z,52.70
2019-04-20T00:41:43.820Z,52.50
2019-04-20T00:43:42.545Z,53.10
2019-04-20T00:45:58.511Z,53.10
2019-04-20T00:47:59.581Z,53.20
2019-04-20T00:50:13.353Z,53.20
2019-04-20T00:52:31.140Z,53.20
2019-04-20T00:54:09.537Z,53.10
2019-04-20T00:56:14.086Z,53.30
2019-04-20T00:58:27.027Z,53.30
2019-04-20T01:00:42.506Z,53.60
2019-04-20T01:02:42.268Z,53.90
2019-04-20T01:04:53.624Z,53.60
2019-04-20T01:07:06.289Z,53.80
2019-04-20T01:09:03.385Z,53.90
2019-04-20T01:11:08.212Z,54.20
2019-04-20T01:13:16.785Z,54.10
2019-04-20T01:15:28.025Z,54.00
2019-04-20T01:17:22.931Z,54.40
2019-04-20T01:19:26.604Z,54.10
2019-04-20T01:21:33.423Z,54.70
2019-04-20T01:23:44.056Z,54.00
2019-04-20T01:25:44.291Z,53.80
2019-04-20T01:28:04.512Z,53.80
2019-04-20T01:30:03.469Z,53.70
2019-04-20T01:32:14.169Z,53.60
2019-04-20T01:34:14.625Z,53.50
2019-04-20T01:36:25.429Z,53.40
2019-04-20T01:38:30.549Z,53.60
2019-04-20T01:40:19.467Z,53.60
2019-04-20T01:42:23.500Z,53.90
2019-04-20T01:44:33.224Z,53.80
2019-04-20T01:46:33.821Z,54.20
2019-04-20T01:48:40.268Z,54.30
2019-04-20T01:50:54.842Z,54.10
2019-04-20T01:52:58.093Z,54.10
2019-04-20T01:55:17.374Z,54.30
2019-04-20T01:57:29.913Z,54.40
2019-04-20T01:59:44.817Z,54.60
2019-04-20T02:01:55.249Z,54.80
2019-04-20T02:03:58.779Z,55.00
2019-04-20T02:06:12.667Z,55.20
2019-04-20T02:08:17.037Z,55.30
2019-04-20T02:10:20.022Z,55.20
2019-04-20T02:12:28.416Z,55.10
2019-04-20T02:14:35.851Z,55.50
2019-04-20T02:16:40.603Z,54.70
2019-04-20T02:18:52.596Z,54.70
2019-04-20T02:21:07.132Z,54.80
2019-04-20T02:23:06.270Z,54.80
2019-04-20T02:24:57.073Z,54.90
2019-04-20T02:27:01.995Z,55.20
2019-04-20T02:29:30.510Z,55.00
2019-04-20T02:33:59.262Z,55.00
2019-04-20T02:36:10.979Z,55.20
2019-04-20T02:38:45.043Z,54.80
2019-04-20T02:40:19.374Z,54.90
2019-04-20T02:42:28.240Z,54.80
2019-04-20T02:44:34.018Z,54.70
2019-04-20T02:48:41.846Z,54.70
2019-04-20T02:50:45.204Z,54.60
2019-04-20T02:52:57.788Z,55.00
2019-04-20T02:55:02.036Z,55.30
2019-04-20T02:59:43.189Z,55.50
2019-04-20T03:01:09.690Z,55.20
2019-04-20T03:03:03.221Z,55.30
2019-04-20T03:05:13.381Z,55.30
2019-04-20T03:07:15.622Z,55.60
2019-04-20T03:09:31.499Z,55.30
2019-04-20T03:11:44.214Z,55.20
2019-04-20T03:13:45.533Z,55.60
2019-04-20T03:15:46.306Z,55.40
2019-04-20T03:17:51.164Z,55.30
2019-04-20T03:19:51.315Z,56.20
2019-04-20T03:22:03.840Z,56.20
2019-04-20T03:24:15.892Z,56.30
2019-04-20T03:26:21.481Z,56.00
2019-04-20T03:28:40.118Z,56.00
2019-04-20T03:35:16.126Z,56.50
2019-04-20T03:37:20.016Z,56.20
2019-04-20T03:39:18.005Z,56.10
2019-04-20T03:41:13.998Z,56.10
2019-04-20T03:43:09.861Z,56.00
2019-04-20T03:45:17.833Z,55.80
2019-04-20T03:47:31.448Z,55.90
2019-04-20T03:49:48.329Z,56.20
2019-04-20T03:51:53.436Z,56.10
2019-04-20T03:54:08.580Z,56.20
2019-04-20T03:56:28.075Z,56.40
2019-04-20T03:58:45.361Z,56.70
2019-04-20T04:00:59.706Z,57.10
2019-04-20T04:03:23.573Z,56.70
2019-04-20T04:05:27.468Z,56.50
2019-04-20T04:07:26.837Z,56.40
2019-04-20T04:09:33.086Z,56.30
2019-04-20T04:11:43.529Z,56.50
2019-04-20T04:13:31.630Z,56.60
2019-04-20T04:15:42.770Z,56.40
2019-04-20T04:17:44.693Z,56.70
2019-04-20T04:19:55.803Z,56.90
2019-04-20T04:22:04.112Z,57.20
2019-04-20T04:24:10.722Z,57.10
2019-04-20T04:26:23.399Z,57.30
2019-04-20T04:28:24.872Z,57.40
2019-04-20T04:30:28.154Z,57.50
2019-04-20T04:33:02.997Z,57.30
2019-04-20T04:34:44.454Z,57.00
2019-04-20T04:36:53.690Z,57.20
2019-04-20T04:39:03.828Z,57.10
2019-04-20T04:41:11.374Z,57.00
2019-04-20T04:43:10.178Z,56.90
2019-04-20T04:45:00.801Z,56.90
2019-04-20T04:47:02.677Z,57.10
2019-04-20T04:49:09.642Z,57.20
2019-04-20T04:51:16.754Z,56.80
2019-04-20T04:53:28.552Z,57.00
2019-04-20T04:55:29.529Z,57.30
2019-04-20T04:57:26.123Z,57.20
2019-04-20T04:59:30.064Z,58.00
2019-04-20T05:01:36.981Z,57.60
2019-04-20T05:04:05.656Z,57.60
2019-04-20T05:06:01.902Z,57.70
2019-04-20T05:08:02.788Z,58.00
2019-04-20T05:09:57.060Z,58.00
2019-04-20T05:12:07.155Z,58.00
2019-04-20T05:14:11.000Z,58.20
2019-04-20T05:16:33.845Z,58.10
2019-04-20T05:18:41.509Z,58.30
2019-04-20T05:20:51.854Z,57.70
2019-04-20T05:23:06.064Z,57.90
2019-04-20T05:25:30.902Z,57.50
2019-04-20T05:27:51.185Z,57.40
2019-04-20T05:29:39.387Z,57.80
2019-04-20T05:31:49.358Z,58.30
2019-04-20T05:34:15.651Z,58.60
2019-04-20T05:36:12.726Z,58.20
2019-04-20T05:38:26.499Z,58.50
2019-04-20T05:40:29.319Z,58.60
2019-04-20T05:42:31.435Z,58.80
2019-04-20T05:44:42.747Z,58.80
2019-04-20T05:46:42.518Z,58.90
2019-04-20T05:48:54.587Z,59.40
2019-04-20T05:50:53.223Z,59.40
2019-04-20T05:53:03.234Z,58.70
2019-04-20T05:55:04.176Z,59.30
2019-04-20T05:57:14.946Z,58.20
2019-04-20T05:59:13.886Z,58.10
2019-04-20T06:01:25.269Z,57.60
2019-04-20T06:03:26.119Z,57.70
2019-04-20T06:05:36.413Z,57.40
2019-04-20T06:07:40.021Z,57.00
2019-04-20T06:09:52.417Z,57.50
2019-04-20T06:12:04.369Z,57.70
2019-04-20T06:13:47.057Z,58.00
2019-04-20T06:16:15.144Z,58.00
2019-04-20T06:18:16.564Z,57.50
2019-04-20T06:20:31.061Z,57.40
2019-04-20T06:22:41.654Z,57.70
2019-04-20T06:24:52.608Z,57.80
2019-04-20T06:28:51.822Z,57.30
2019-04-20T06:30:57.865Z,56.90
2019-04-20T06:34:05.492Z,56.80
2019-04-20T06:36:09.344Z,56.40
2019-04-20T06:38:00.653Z,56.00
2019-04-20T06:40:11.200Z,55.90
2019-04-20T06:42:10.810Z,55.70
2019-04-20T06:44:14.690Z,55.60
2019-04-20T06:46:24.043Z,55.40
2019-04-20T06:48:30.511Z,55.80
2019-04-20T06:50:30.339Z,55.60
2019-04-20T06:52:32.588Z,55.00
2019-04-20T06:54:43.147Z,54.60
2019-04-20T06:56:54.440Z,54.40
2019-04-20T06:59:06.933Z,53.50
2019-04-20T07:01:05.662Z,53.00
2019-04-20T07:03:09.011Z,53.20
2019-04-20T07:05:22.397Z,53.20
2019-04-20T07:09:39.907Z,51.20
2019-04-20T07:11:39.044Z,52.20
2019-04-20T07:13:28.901Z,50.80
2019-04-20T07:15:46.517Z,51.80
2019-04-20T07:20:05.977Z,49.70
2019-04-20T07:22:24.971Z,50.20
2019-04-20T07:24:24.947Z,50.70
2019-04-20T07:26:32.200Z,49.20
2019-04-20T07:28:43.685Z,48.70
2019-04-20T07:30:43.622Z,48.50
2019-04-20T07:32:49.851Z,48.60
2019-04-20T07:34:51.290Z,48.70
2019-04-20T07:37:19.331Z,48.20
2019-04-20T07:39:02.100Z,48.70
2019-04-20T07:41:14.362Z,49.00
2019-04-20T07:43:02.515Z,48.60
2019-04-20T07:45:24.179Z,49.00
2019-04-20T07:47:29.724Z,47.90
2019-04-20T07:49:27.485Z,47.90
2019-04-20T07:51:18.262Z,47.90
2019-04-20T07:53:32.985Z,48.80
2019-04-20T07:56:02.378Z,48.00
2019-04-20T07:57:41.939Z,48.20
2019-04-20T07:59:52.812Z,48.30
2019-04-20T08:02:15.965Z,48.30
2019-04-20T08:04:22.684Z,48.20
2019-04-20T08:06:23.456Z,48.30
2019-04-20T08:08:33.740Z,47.60
2019-04-20T08:10:39.410Z,48.30
2019-04-20T08:13:09.359Z,48.20
2019-04-20T08:15:05.067Z,48.10
2019-04-20T08:17:13.781Z,47.80
2019-04-20T08:19:07.957Z,48.00
2019-04-20T08:21:20.911Z,48.00
2019-04-20T08:23:23.100Z,47.70
2019-04-20T08:25:22.734Z,48.20
2019-04-20T08:27:16.220Z,48.20
2019-04-20T08:29:33.638Z,48.40
2019-04-20T08:31:41.675Z,48.50
2019-04-20T08:34:13.559Z,48.60
2019-04-20T08:36:10.711Z,48.30
2019-04-20T08:38:51.597Z,47.60
2019-04-20T08:40:21.557Z,47.90
2019-04-20T08:42:29.901Z,47.60
2019-04-20T08:46:45.618Z,47.80
2019-04-20T08:48:46.876Z,48.80
2019-04-20T08:50:50.653Z,48.50
2019-04-20T08:53:08.903Z,48.40
2019-04-20T08:55:02.393Z,48.50
2019-04-20T08:56:53.188Z,47.70
2019-04-20T08:58:52.826Z,47.30
2019-04-20T09:01:01.223Z,48.20
2019-04-20T09:03:12.137Z,48.20
2019-04-20T09:05:24.850Z,48.80
2019-04-20T09:07:20.243Z,48.50
2019-04-20T09:09:52.558Z,48.30
2019-04-20T09:11:49.639Z,48.90
2019-04-20T09:13:40.594Z,48.20
2019-04-20T09:15:38.339Z,48.20
2019-04-20T09:17:52.495Z,47.90
2019-04-20T09:19:59.953Z,47.50
2019-04-20T09:22:28.331Z,47.50
2019-04-20T09:24:47.440Z,47.90
2019-04-20T09:26:44.654Z,48.30
2019-04-20T09:28:39.607Z,47.40
2019-04-20T09:30:55.867Z,48.00
2019-04-20T09:33:09.723Z,48.40
2019-04-20T09:35:17.377Z,47.90
2019-04-20T09:37:27.808Z,48.50
2019-04-20T09:39:39.509Z,48.00
2019-04-20T09:41:59.890Z,48.20
2019-04-20T09:43:54.030Z,46.70
2019-04-20T09:46:02.126Z,47.60
2019-04-20T09:48:11.578Z,48.10
2019-04-20T09:50:25.015Z,46.70
2019-04-20T09:52:30.070Z,46.00
2019-04-20T09:54:35.846Z,46.20
2019-04-20T09:56:39.496Z,46.50
2019-04-20T09:58:52.421Z,47.20
2019-04-20T10:00:59.536Z,48.20
2019-04-20T10:02:52.654Z,46.70
2019-04-20T10:04:57.723Z,46.60
2019-04-20T10:07:07.905Z,47.40
2019-04-20T10:09:09.628Z,46.80
2019-04-20T10:11:13.824Z,45.20
2019-04-20T10:13:17.662Z,45.30
2019-04-20T10:15:25.926Z,46.00
2019-04-20T10:17:30.485Z,46.00
2019-04-20T10:19:35.735Z,45.60
2019-04-20T10:21:38.779Z,45.10
2019-04-20T10:23:44.892Z,45.70
2019-04-20T10:25:48.891Z,45.00
2019-04-20T10:27:53.553Z,44.70
2019-04-20T10:29:59.452Z,45.30
2019-04-20T10:32:07.923Z,44.10
2019-04-20T10:34:09.460Z,45.00
2019-04-20T10:36:25.634Z,44.60
2019-04-20T10:38:34.213Z,44.10
2019-04-20T10:40:46.133Z,43.00
2019-04-20T10:42:42.100Z,44.20
2019-04-20T10:44:48.028Z,44.60
2019-04-20T10:46:51.515Z,44.10
2019-04-20T10:48:58.332Z,42.90
2019-04-20T10:51:01.063Z,42.60
2019-04-20T10:53:05.750Z,43.10
2019-04-20T10:55:10.498Z,43.30
2019-04-20T10:57:15.550Z,43.60
2019-04-20T10:59:19.453Z,43.00
2019-04-20T11:01:23.166Z,42.60
2019-04-20T11:03:27.144Z,44.10
2019-04-20T11:05:32.806Z,44.50
2019-04-20T11:07:36.804Z,43.30
2019-04-20T11:09:40.777Z,43.10
2019-04-20T11:11:44.626Z,42.20
2019-04-20T11:13:48.317Z,42.80
2019-04-20T11:15:52.643Z,42.70
2019-04-20T11:17:57.533Z,42.90
2019-04-20T11:20:01.574Z,41.30
2019-04-20T11:22:06.228Z,41.50
2019-04-20T11:24:10.151Z,39.10
2019-04-20T11:26:14.141Z,39.90
2019-04-20T11:28:17.887Z,37.90
2019-04-20T11:30:22.462Z,39.40
2019-04-20T11:32:26.367Z,38.80
2019-04-20T11:34:34.000Z,36.70
2019-04-20T11:36:36.998Z,35.80
2019-04-20T11:38:41.265Z,36.60
2019-04-20T11:40:45.015Z,37.60
2019-04-20T11:42:49.959Z,37.00
2019-04-20T11:44:54.927Z,35.30
2019-04-20T11:46:58.780Z,35.60
2019-04-20T11:49:03.674Z,36.90
2019-04-20T11:51:07.615Z,36.40
2019-04-20T11:53:11.481Z,35.10
2019-04-20T11:55:16.116Z,35.80
2019-04-20T11:57:20.039Z,35.20
2019-04-20T11:59:23.761Z,37.10
2019-04-20T12:01:51.955Z,34.80
2019-04-20T12:04:01.937Z,36.10
2019-04-20T12:06:01.659Z,35.50
2019-04-20T12:08:07.052Z,35.70
2019-04-20T12:10:15.764Z,35.20
2019-04-20T12:12:27.281Z,34.90
2019-04-20T12:14:22.909Z,34.70
2019-04-20T12:16:27.814Z,35.10
2019-04-20T12:18:31.825Z,34.70
2019-04-20T12:20:36.665Z,35.40
2019-04-20T12:22:42.042Z,34.90
2019-04-20T12:24:45.919Z,33.10
2019-04-20T12:26:50.971Z,34.50
2019-04-20T12:28:58.021Z,35.20
2019-04-20T12:31:11.383Z,34.90
2019-04-20T12:33:07.579Z,34.90
2019-04-20T12:35:12.056Z,35.10
2019-04-20T12:37:15.814Z,36.20
2019-04-20T12:39:19.483Z,33.20
2019-04-20T12:41:34.484Z,33.70
2019-04-20T12:43:29.852Z,34.60
2019-04-20T12:45:33.634Z,34.00
2019-04-20T12:47:57.572Z,33.60
2019-04-20T12:50:01.725Z,33.60
2019-04-20T12:52:06.553Z,34.70
2019-04-20T12:54:10.866Z,34.20
2019-04-20T12:56:14.759Z,35.00
2019-04-20T12:58:18.710Z,33.80
2019-04-20T13:00:25.667Z,35.00
2019-04-20T13:02:29.470Z,33.40
2019-04-20T13:04:33.305Z,33.60
2019-04-20T13:06:39.089Z,31.30
2019-04-20T13:08:48.965Z,32.60
2019-04-20T13:10:50.715Z,31.80
2019-04-20T13:12:56.480Z,30.50
2019-04-20T13:15:26.570Z,30.40
2019-04-20T13:17:30.550Z,30.50
2019-04-20T13:19:35.372Z,31.30
2019-04-20T13:21:39.258Z,29.90
2019-04-20T13:23:44.795Z,30.50
2019-04-20T13:25:48.743Z,30.00
2019-04-20T13:27:52.809Z,29.90
2019-04-20T13:29:56.531Z,30.00
2019-04-20T13:32:00.255Z,30.10
2019-04-20T13:34:05.395Z,29.60
2019-04-20T13:36:10.301Z,28.90
2019-04-20T13:38:14.360Z,29.10
2019-04-20T13:40:19.715Z,29.40
2019-04-20T13:42:27.785Z,28.60
2019-04-20T13:44:28.862Z,28.10
2019-04-20T13:46:33.350Z,28.40
2019-04-20T13:48:37.192Z,29.00
2019-04-20T13:50:42.279Z,28.00
2019-04-20T13:52:46.866Z,27.90
2019-04-20T13:54:51.782Z,28.20
2019-04-20T13:56:57.516Z,28.40
2019-04-20T13:59:03.785Z,28.70
2019-04-20T14:01:12.594Z,28.10
2019-04-20T14:03:18.438Z,26.80
2019-04-20T14:05:33.242Z,26.90
2019-04-20T14:07:37.553Z,26.80
2019-04-20T14:09:41.620Z,26.80
2019-04-20T14:11:45.469Z,27.10
2019-04-20T14:13:55.357Z,27.00
2019-04-20T14:15:55.439Z,26.40
2019-04-20T14:17:59.422Z,26.50
2019-04-20T14:20:10.000Z,26.20
2019-04-20T14:22:10.296Z,26.00
2019-04-20T14:24:15.060Z,25.40
2019-04-20T14:26:18.938Z,25.60
2019-04-20T14:28:23.032Z,26.00
2019-04-20T14:30:26.967Z,26.10
2019-04-20T14:32:30.873Z,25.70
2019-04-20T14:34:35.227Z,26.00
2019-04-20T14:36:39.131Z,25.70
2019-04-20T14:38:45.351Z,25.60
2019-04-20T14:40:48.407Z,25.80
2019-04-20T14:42:55.025Z,25.90
2019-04-20T14:44:57.902Z,26.50
2019-04-20T14:47:01.611Z,26.60
2019-04-20T14:49:05.274Z,25.00
2019-04-20T14:51:09.773Z,25.20
2019-04-20T14:53:13.654Z,26.20
2019-04-20T14:55:18.961Z,26.60
2019-04-20T14:57:23.417Z,27.00
2019-04-20T14:59:29.577Z,26.60
2019-04-20T15:01:34.889Z,26.50
2019-04-20T15:03:40.890Z,26.50
2019-04-20T15:05:45.122Z,26.30
2019-04-20T15:07:48.937Z,26.10
2019-04-20T15:09:52.988Z,26.00
2019-04-20T15:11:56.966Z,25.70
2019-04-20T15:14:00.762Z,26.40
2019-04-20T15:16:04.715Z,25.00
2019-04-20T15:18:11.309Z,25.50
2019-04-20T15:20:17.217Z,25.50
2019-04-20T15:22:31.697Z,25.80
2019-04-20T15:24:35.651Z,25.70
2019-04-20T15:26:40.410Z,26.50
2019-04-20T15:28:44.200Z,26.10
2019-04-20T15:30:48.463Z,26.70
2019-04-20T15:32:52.599Z,25.10
2019-04-20T15:34:57.153Z,26.30
2019-04-20T15:37:02.336Z,26.50
2019-04-20T15:39:07.627Z,26.70
2019-04-20T15:41:13.327Z,27.30
2019-04-20T15:43:20.849Z,26.50
2019-04-20T15:45:23.289Z,26.80
2019-04-20T15:47:27.918Z,26.60
2019-04-20T15:49:31.929Z,26.70
2019-04-20T15:51:35.684Z,26.70
2019-04-20T15:53:39.789Z,26.60
2019-04-20T15:55:45.629Z,26.20
2019-04-20T15:57:50.357Z,26.40
2019-04-20T15:59:54.362Z,26.30
2019-04-20T16:02:15.698Z,25.60
2019-04-20T16:04:39.834Z,25.90
2019-04-20T16:06:43.271Z,25.90
2019-04-20T16:08:50.299Z,25.90
2019-04-20T16:10:55.200Z,26.00
2019-04-20T16:13:11.933Z,26.30
2019-04-20T16:15:07.504Z,26.40
2019-04-20T16:17:12.487Z,26.40
2019-04-20T16:19:28.781Z,26.30
2019-04-20T16:21:25.934Z,25.70
2019-04-20T16:23:28.287Z,25.90
2019-04-20T16:25:35.233Z,26.10
2019-04-20T16:27:39.264Z,25.20
2019-04-20T16:29:43.927Z,25.20
2019-04-20T16:31:49.915Z,25.20
2019-04-20T16:33:55.599Z,24.80
2019-04-20T16:35:58.568Z,25.70
2019-04-20T16:38:02.610Z,26.10
2019-04-20T16:40:08.508Z,25.50
2019-04-20T16:42:14.091Z,25.30
2019-04-20T16:44:17.976Z,25.10
2019-04-20T16:46:23.873Z,25.40
2019-04-20T16:48:28.202Z,23.90
2019-04-20T16:50:33.100Z,24.90
2019-04-20T16:52:36.934Z,25.30
2019-04-20T16:54:41.775Z,25.60
2019-04-20T16:56:46.619Z,24.40
2019-04-20T16:58:57.328Z,24.50
2019-04-20T17:00:55.958Z,24.90
2019-04-20T17:03:00.422Z,25.00
2019-04-20T17:05:05.196Z,24.80
2019-04-20T17:07:16.732Z,24.90
2019-04-20T17:09:21.894Z,24.90
2019-04-20T17:11:25.768Z,24.60
2019-04-20T17:13:37.998Z,24.80
2019-04-20T17:15:35.290Z,24.90
2019-04-20T17:17:39.932Z,24.90
2019-04-20T17:19:44.005Z,25.30
2019-04-20T17:21:48.683Z,25.10
2019-04-20T17:23:53.238Z,25.80
2019-04-20T17:25:57.996Z,25.70
2019-04-20T17:28:18.166Z,25.40
2019-04-20T17:30:26.701Z,26.10
2019-04-20T17:32:31.665Z,26.00
2019-04-20T17:34:46.980Z,26.30
2019-04-20T17:36:42.129Z,26.60
2019-04-20T17:38:52.599Z,26.60
2019-04-20T17:41:09.964Z,27.30
2019-04-20T17:43:07.578Z,27.00
2019-04-20T17:45:08.561Z,26.60
2019-04-20T17:47:25.861Z,26.90
2019-04-20T17:49:25.749Z,26.80
2019-04-20T17:51:40.000Z,26.90
2019-04-20T17:53:47.465Z,26.80
2019-04-20T17:55:51.774Z,27.20
2019-04-20T17:57:55.511Z,27.10
2019-04-20T18:00:12.186Z,27.50
2019-04-20T18:02:48.690Z,27.90
2019-04-20T18:05:11.007Z,27.90
2019-04-20T18:07:00.631Z,27.90
2019-04-20T18:09:06.852Z,28.00
2019-04-20T18:11:09.169Z,28.40
2019-04-20T18:13:12.056Z,29.40
2019-04-20T18:15:29.529Z,30.50
2019-04-20T18:17:32.644Z,30.30
2019-04-20T18:19:36.899Z,29.70
2019-04-20T18:21:45.586Z,31.10
2019-04-20T18:23:51.760Z,32.20
2019-04-20T18:26:18.539Z,32.50
2019-04-20T18:28:15.051Z,33.10
2019-04-20T18:30:26.295Z,32.50
2019-04-20T18:32:20.492Z,33.00
2019-04-20T18:34:27.800Z,32.60
2019-04-20T18:36:37.550Z,33.60
2019-04-20T18:38:45.004Z,31.80
2019-04-20T18:40:51.305Z,32.30
2019-04-20T18:42:59.650Z,32.70
2019-04-20T18:45:14.949Z,32.10
2019-04-20T18:47:18.605Z,33.10
2019-04-20T18:49:18.180Z,33.80
2019-04-20T18:51:09.956Z,34.30
2019-04-20T18:53:19.038Z,34.70
2019-04-20T18:55:29.075Z,36.00
2019-04-20T18:57:28.963Z,36.00
2019-04-20T18:59:39.624Z,36.30
2019-04-20T19:01:39.567Z,36.40
2019-04-20T19:03:44.089Z,36.20
2019-04-20T19:05:47.611Z,35.60
2019-04-20T19:07:59.324Z,35.80
2019-04-20T19:10:04.355Z,36.30
2019-04-20T19:12:06.010Z,35.60
2019-04-20T19:14:31.553Z,36.10
2019-04-20T19:16:35.626Z,37.00
2019-04-20T19:19:00.578Z,37.70
2019-04-20T19:20:57.349Z,37.20
2019-04-20T19:23:02.158Z,37.60
2019-04-20T19:25:09.987Z,38.20
2019-04-20T19:27:15.562Z,37.90
2019-04-20T19:29:27.772Z,38.40
2019-04-20T19:31:41.336Z,37.20
2019-04-20T19:33:47.035Z,37.20
2019-04-20T19:35:48.533Z,37.80
2019-04-20T19:37:51.261Z,39.10
2019-04-20T19:40:00.971Z,39.60
2019-04-20T19:41:59.737Z,37.90
2019-04-20T19:44:10.022Z,39.60
2019-04-20T19:46:44.400Z,39.40
2019-04-20T19:48:22.722Z,39.50
2019-04-20T19:52:43.366Z,39.40
2019-04-20T19:54:40.048Z,40.00
2019-04-20T19:56:47.075Z,40.60
2019-04-20T19:58:52.993Z,40.70
2019-04-20T20:00:46.250Z,41.40
2019-04-20T20:02:49.961Z,41.40
2019-04-20T20:05:00.443Z,41.80
2019-04-20T20:07:04.013Z,41.60
2019-04-20T20:09:11.003Z,41.60
2019-04-20T20:11:22.739Z,41.50
2019-04-20T20:13:18.266Z,42.00
2019-04-20T20:15:27.884Z,42.00
2019-04-20T20:17:52.894Z,41.50
2019-04-20T20:20:04.194Z,41.90
2019-04-20T20:21:56.393Z,39.50
2019-04-20T20:23:44.139Z,41.00
2019-04-20T20:25:49.819Z,41.30
2019-04-20T20:27:58.222Z,41.10
2019-04-20T20:30:09.238Z,41.10
2019-04-20T20:32:17.834Z,41.60
2019-04-20T20:34:17.114Z,40.20
2019-04-20T20:36:19.295Z,40.70
2019-04-20T20:38:28.013Z,41.40
2019-04-20T20:40:32.733Z,40.90
2019-04-20T20:42:48.559Z,41.00
2019-04-20T20:44:45.505Z,42.10
2019-04-20T20:46:55.019Z,42.30
2019-04-20T20:49:09.609Z,42.40
2019-04-20T20:51:10.365Z,43.00
2019-04-20T20:53:10.265Z,43.00
2019-04-20T20:55:19.683Z,43.30
2019-04-20T20:57:18.465Z,43.40
2019-04-20T20:59:30.735Z,43.00
2019-04-20T21:01:26.489Z,43.50
2019-04-20T21:03:35.987Z,43.80
2019-04-20T21:05:35.582Z,44.30
2019-04-20T21:07:40.526Z,43.70
2019-04-20T21:09:44.299Z,44.70
2019-04-20T21:11:51.116Z,43.60
2019-04-20T21:13:54.589Z,43.60
2019-04-20T21:16:03.485Z,44.00
2019-04-20T21:18:31.303Z,44.30
2019-04-20T21:20:20.240Z,43.80
2019-04-20T21:22:27.261Z,43.00
2019-04-20T21:24:23.684Z,43.00
2019-04-20T21:26:35.025Z,42.30
2019-04-20T21:28:36.070Z,42.40
2019-04-20T21:30:43.840Z,43.00
2019-04-20T21:32:48.442Z,43.30
2019-04-20T21:34:56.608Z,42.70
2019-04-20T21:37:07.322Z,42.50
2019-04-20T21:39:01.479Z,42.10
2019-04-20T21:41:11.257Z,42.00
2019-04-20T21:43:12.734Z,42.10
2019-04-20T21:45:23.132Z,42.20
2019-04-20T21:47:30.243Z,42.90
2019-04-20T21:49:43.682Z,41.40
2019-04-20T21:51:44.300Z,43.00
2019-04-20T21:53:39.478Z,43.00
2019-04-20T21:55:44.206Z,44.70
2019-04-20T21:57:51.493Z,45.30
2019-04-20T21:59:56.810Z,45.10
2019-04-20T22:02:07.802Z,45.50
2019-04-20T22:04:04.260Z,45.20
2019-04-20T22:06:08.920Z,45.50
2019-04-20T22:08:16.146Z,45.20
2019-04-20T22:10:22.817Z,44.90
2019-04-20T22:12:23.717Z,45.40
2019-04-20T22:14:30.039Z,45.50
2019-04-20T22:16:38.943Z,45.30
2019-04-20T22:18:48.196Z,45.90
2019-04-20T22:21:01.732Z,46.00
2019-04-20T22:23:00.845Z,46.30
2019-04-20T22:25:08.010Z,45.80
2019-04-20T22:27:06.274Z,46.30
2019-04-20T22:29:06.050Z,46.10
2019-04-20T22:31:09.794Z,46.20
2019-04-20T22:33:23.592Z,47.40
2019-04-20T22:35:24.402Z,46.50
2019-04-20T22:37:31.603Z,46.40
2019-04-20T22:39:42.161Z,47.40
2019-04-20T22:41:48.469Z,47.70
2019-04-20T22:43:50.415Z,47.50
2019-04-20T22:45:55.559Z,47.70
2019-04-20T22:48:06.731Z,47.70
2019-04-20T22:50:28.972Z,47.50
2019-04-20T22:52:30.454Z,47.50
2019-04-20T22:54:36.379Z,47.40
2019-04-20T22:56:38.308Z,47.00
2019-04-20T22:58:43.262Z,47.20
2019-04-20T23:00:43.136Z,47.10
2019-04-20T23:02:40.842Z,47.90
2019-04-20T23:04:44.713Z,48.00
2019-04-20T23:06:50.293Z,48.10
2019-04-20T23:08:59.517Z,48.30
2019-04-20T23:10:59.719Z,48.30
2019-04-20T23:13:05.311Z,47.80
2019-04-20T23:15:10.365Z,47.70
2019-04-20T23:17:18.542Z,47.60
2019-04-20T23:19:33.544Z,47.90
2019-04-20T23:21:25.880Z,47.80
2019-04-20T23:23:30.977Z,48.10
2019-04-20T23:25:36.455Z,48.10
2019-04-20T23:27:40.754Z,48.10
2019-04-20T23:29:46.947Z,48.00
2019-04-20T23:31:56.899Z,47.90
2019-04-20T23:33:56.398Z,47.90
2019-04-20T23:36:02.866Z,47.60
2019-04-20T23:38:11.094Z,47.90
2019-04-20T23:40:13.134Z,47.90
2019-04-20T23:42:18.043Z,48.20
2019-04-20T23:44:35.702Z,47.70
2019-04-20T23:46:41.284Z,47.90
2019-04-20T23:48:50.180Z,48.10
2019-04-20T23:51:08.312Z,48.10
2019-04-20T23:53:13.877Z,48.50
2019-04-20T23:55:09.813Z,48.60
2019-04-20T23:57:13.440Z,49.20
2019-04-20T23:59:19.073Z,48.60
